| time (UTC) | temp F | wind direction | speed MPH | gust MPH | rain 1hr in | rain 24hr in | rain mn in | humidity % | barometer mb |
| 20260903134232 | 83 | 270 | 2.0 | 2.0 | 0.00 | 0.00 | 0.00 | 95 | 998.0 |
| 20260903125231 | 84 | 248 | 5.0 | 5.0 | 0.00 | 0.00 | 0.00 | 91 | 997.3 |
| 20260903124232 | 85 | 293 | 5.0 | 5.0 | 0.00 | 0.00 | 0.00 | 90 | 997.3 |
| 20260903123731 | 85 | 248 | 5.0 | 5.0 | 0.00 | 0.00 | 0.00 | 89 | 997.0 |
| 20260903121740 | 87 | 293 | 9.0 | 9.0 | 0.00 | 0.00 | 0.00 | 86 | 997.0 |
| 20260903094441 | 90 | 270 | 5.0 | 5.0 | 0.00 | 0.00 | 0.00 | 86 | 996.3 |
| 20260903091941 | 92 | 315 | 4.0 | 4.0 | 0.00 | 0.00 | 0.00 | 82 | 996.3 |
| 20260903090941 | 92 | 248 | 4.0 | 4.0 | 0.00 | 0.00 | 0.00 | 82 | 996.6 |
| 20260903090441 | 92 | 293 | 4.0 | 4.0 | 0.00 | 0.00 | 0.00 | 81 | 996.6 |
| 20260903085941 | 93 | 203 | 4.0 | 4.0 | 0.00 | 0.00 | 0.00 | 80 | 996.6 |
| 20260903085440 | 93 | 293 | 4.0 | 4.0 | 0.00 | 0.00 | 0.00 | 81 | 996.6 |
| 20260903084441 | 93 | 270 | 5.0 | 5.0 | 0.00 | 0.00 | 0.00 | 79 | 996.6 |
| 20260903083441 | 92 | 225 | 5.0 | 5.0 | 0.00 | 0.00 | 0.00 | 81 | 997.0 |
| 20260903082441 | 93 | 270 | 5.0 | 5.0 | 0.00 | 0.00 | 0.00 | 80 | 997.3 |
| 20260903080940 | 93 | 270 | 6.0 | 6.0 | 0.00 | 0.00 | 0.00 | 79 | 997.3 |
| 20260903075941 | 94 | 248 | 5.0 | 5.0 | 0.00 | 0.00 | 0.00 | 80 | 997.6 |
| 20260903075440 | 93 | 270 | 4.0 | 4.0 | 0.00 | 0.00 | 0.00 | 80 | 997.3 |
| 20260903074441 | 92 | 225 | 4.0 | 4.0 | 0.00 | 0.00 | 0.00 | 81 | 997.6 |
| 20260903073441 | 92 | 338 | 3.0 | 3.0 | 0.00 | 0.00 | 0.00 | 82 | 998.0 |
| 20260903071941 | 91 | 113 | 4.0 | 4.0 | 0.00 | 0.00 | 0.00 | 82 | 998.0 |
| 20260903071440 | 91 | 180 | 5.0 | 5.0 | 0.00 | 0.00 | 0.00 | 82 | 998.3 |
| 20260903070940 | 92 | 315 | 4.0 | 4.0 | 0.00 | 0.00 | 0.00 | 82 | 998.3 |
| 20260903065440 | 92 | 270 | 5.0 | 5.0 | 0.00 | 0.00 | 0.00 | 82 | 998.6 |
| 20260903063440 | 90 | 270 | 4.0 | 4.0 | 0.00 | 0.00 | 0.00 | 83 | 999.0 |
| 20260903061441 | 91 | 158 | 0.0 | 0.0 | 0.00 | 0.00 | 0.00 | 84 | 999.3 |
| 20260903060441 | 89 | 113 | 0.0 | 0.0 | 0.00 | 0.00 | 0.00 | 85 | 999.3 |
| 20260903052940 | 88 | 270 | 1.0 | 1.0 | 0.00 | 0.00 | 0.00 | 86 | 999.3 |
| 20260903052440 | 89 | 225 | 0.0 | 0.0 | 0.00 | 0.00 | 0.00 | 87 | 999.3 |
| 20260903045940 | 88 | 270 | 0.0 | 0.0 | 0.00 | 0.00 | 0.00 | 89 | 999.7 |
| 20260903044940 | 86 | 225 | 0.0 | 0.0 | 0.00 | 0.00 | 0.00 | 90 | 1000.0 |
| 20260903044009 | 87 | 315 | 0.0 | 0.0 | 0.00 | 0.00 | 0.00 | 89 | 1000.0 |
| 20260903043151 | 87 | 293 | 0.0 | 0.0 | 0.00 | 0.00 | 0.00 | 90 | 1000.0 |
| 20260903042151 | 87 | 248 | 0.0 | 0.0 | 0.00 | 0.00 | 0.00 | 91 | 1000.3 |
| 20260903041651 | 87 | 293 | 0.0 | 0.0 | 0.00 | 0.00 | 0.00 | 90 | 1000.3 |
| 20260903040651 | 86 | 248 | 1.0 | 1.0 | 0.00 | 0.00 | 0.00 | 92 | 1000.3 |
| 20260903035651 | 85 | 270 | 1.0 | 1.0 | 0.00 | 0.00 | 0.00 | 93 | 1000.7 |
| 20260903035150 | 84 | 270 | 1.0 | 1.0 | 0.00 | 0.00 | 0.00 | 93 | 1000.3 |
| 20260903034151 | 86 | 270 | 2.0 | 2.0 | 0.00 | 0.00 | 0.00 | 92 | 1000.3 |
| 20260903033650 | 85 | 270 | 3.0 | 3.0 | 0.00 | 0.00 | 0.00 | 92 | 1000.3 |
| 20260903032706 | 84 | 203 | 4.0 | 4.0 | 0.00 | 0.00 | 0.00 | 96 | 1000.3 |